Time;durP1;ratioP1;P1;durP2;ratioP2;P2;SDS_P1;SDS_P2;PMS_P1;PMS_P2;Temp;Humidity;BMP_temperature;BMP_pressure;BME280_temperature;BME280_humidity;BME280_pressure;Samples;Min_cycle;Max_cycle;Signal;HPM_P1;HPM_P2
2021/08/07 00:00:05;;;;;;;4.22;3.35;;;;;;;16.50;91.43;99722.00;4966280;28;20034;-82
2021/08/07 00:02:38;;;;;;;7.82;3.10;;;;;;;16.46;91.73;99725.75;4965529;28;20182;-81
2021/08/07 00:05:04;;;;;;;5.43;2.72;;;;;;;16.44;91.78;99720.47;4949940;28;20098;-81
2021/08/07 00:07:29;;;;;;;4.18;2.72;;;;;;;16.41;91.51;99711.75;4965134;28;20043;-82
2021/08/07 00:09:54;;;;;;;4.72;2.88;;;;;;;16.39;91.51;99711.81;4966247;28;20042;-81
2021/08/07 00:12:20;;;;;;;5.75;3.13;;;;;;;16.37;91.30;99715.47;4964954;28;20039;-81
2021/08/07 00:14:45;;;;;;;4.57;2.50;;;;;;;16.37;91.13;99713.69;4969247;28;20047;-81
2021/08/07 00:17:10;;;;;;;6.35;3.45;;;;;;;16.36;91.23;99719.06;4964393;28;20039;-82
2021/08/07 00:19:36;;;;;;;5.40;2.15;;;;;;;16.27;91.10;99714.13;4966933;28;20121;-81
2021/08/07 00:22:03;;;;;;;5.43;2.42;;;;;;;16.21;91.39;99715.25;4964465;28;20043;-81
2021/08/07 00:24:28;;;;;;;5.70;3.25;;;;;;;16.17;91.11;99714.53;4965894;28;20050;-81
2021/08/07 00:26:53;;;;;;;4.28;2.33;;;;;;;16.13;91.00;99715.56;4967450;28;20047;-82
2021/08/07 00:29:19;;;;;;;4.63;3.30;;;;;;;16.13;90.95;99712.91;4968218;28;20023;-82
2021/08/07 00:31:44;;;;;;;4.72;3.25;;;;;;;16.11;90.83;99717.47;4966920;28;20039;-82
2021/08/07 00:34:09;;;;;;;3.80;2.63;;;;;;;16.08;90.78;99714.91;4952773;28;20037;-82
2021/08/07 00:36:36;;;;;;;5.88;3.70;;;;;;;16.00;91.48;99711.69;4966015;28;20034;-81
2021/08/07 00:39:02;;;;;;;5.70;3.80;;;;;;;15.91;91.54;99723.59;4966858;28;20098;-81
2021/08/07 00:41:29;;;;;;;7.05;3.65;;;;;;;15.89;91.46;99725.44;4965051;28;20046;-81
2021/08/07 00:43:55;;;;;;;5.72;4.30;;;;;;;15.89;91.55;99725.44;4949017;28;20042;-81
2021/08/07 00:46:28;;;;;;;5.70;3.60;;;;;;;15.83;91.37;99719.53;4966100;28;20038;-81
2021/08/07 00:48:55;;;;;;;6.05;3.78;;;;;;;15.78;91.36;99733.88;4948115;28;20069;-81
2021/08/07 00:51:22;;;;;;;4.75;2.88;;;;;;;15.73;91.81;99732.31;4966192;28;20126;-81
2021/08/07 00:53:51;;;;;;;3.78;1.95;;;;;;;15.69;91.35;99734.25;4966730;28;20097;-81
2021/08/07 00:56:20;;;;;;;7.07;3.13;;;;;;;15.61;91.71;99730.97;4967396;28;20660;-80
2021/08/07 00:58:51;;;;;;;5.72;2.80;;;;;;;15.58;91.92;99731.09;4953716;28;20122;-81
2021/08/07 01:01:19;;;;;;;7.30;3.65;;;;;;;15.63;92.30;99736.25;4972860;28;20026;-81
2021/08/07 01:03:48;;;;;;;6.18;3.97;;;;;;;15.64;92.04;99736.19;4969949;28;20039;-81
2021/08/07 01:06:34;;;;;;;8.27;3.10;;;;;;;15.69;91.99;99738.69;4968121;28;20071;-81
2021/08/07 01:09:47;;;;;;;7.38;3.67;;;;;;;15.71;91.36;99737.69;4969929;28;20031;-80
2021/08/07 01:12:35;;;;;;;5.45;3.10;;;;;;;15.79;91.39;99745.38;4962445;28;20043;-81
2021/08/07 01:15:03;;;;;;;7.38;3.15;;;;;;;15.83;91.31;99743.47;4951213;29;20449;-81
2021/08/07 01:17:33;;;;;;;7.40;3.30;;;;;;;15.87;91.08;99740.59;4967994;28;20100;-81
2021/08/07 01:20:06;;;;;;;7.13;3.30;;;;;;;15.88;90.53;99738.84;4954463;28;20038;-81
2021/08/07 01:22:45;;;;;;;8.27;3.00;;;;;;;15.87;90.42;99740.59;4968935;28;20046;-81
2021/08/07 01:25:17;;;;;;;6.43;3.30;;;;;;;15.86;90.18;99738.88;4935496;29;20035;-81
2021/08/07 01:27:47;;;;;;;7.03;3.70;;;;;;;15.86;90.17;99740.69;4967925;28;20039;-80
2021/08/07 01:30:25;;;;;;;6.10;3.60;;;;;;;15.82;90.04;99747.91;4968064;28;20172;-81
2021/08/07 01:32:54;;;;;;;9.02;3.90;;;;;;;15.86;90.16;99746.88;4969822;28;20114;-80
2021/08/07 01:35:22;;;;;;;6.82;3.63;;;;;;;15.89;89.81;99743.22;4966695;28;20061;-81
2021/08/07 01:37:50;;;;;;;10.07;4.18;;;;;;;15.91;89.84;99741.38;4966699;28;20070;-82
2021/08/07 01:40:28;;;;;;;14.82;5.57;;;;;;;15.91;89.69;99736.91;4968789;28;20122;-81
2021/08/07 01:43:02;;;;;;;10.82;4.07;;;;;;;15.89;89.55;99732.56;4969148;28;20031;-81
2021/08/07 01:45:33;;;;;;;5.00;3.30;;;;;;;15.88;90.01;99728.19;4966277;28;20407;-81
2021/08/07 01:48:28;;;;;;;6.40;3.83;;;;;;;15.79;89.87;99737.38;4969334;28;20057;-81
2021/08/07 01:51:09;;;;;;;7.78;4.63;;;;;;;15.68;89.68;99740.44;4953630;28;20027;-81
2021/08/07 01:53:36;;;;;;;7.50;3.30;;;;;;;15.65;89.74;99731.72;4936949;28;20042;-81
2021/08/07 01:56:25;;;;;;;5.25;2.88;;;;;;;15.62;90.01;99732.72;4969259;28;20034;-81
2021/08/07 01:58:56;;;;;;;8.15;3.50;;;;;;;15.59;89.49;99727.53;4967335;28;20039;-81
2021/08/07 02:01:28;;;;;;;10.63;4.35;;;;;;;15.50;89.76;99733.19;4938212;28;20558;-82
2021/08/07 02:03:55;;;;;;;4.20;2.30;;;;;;;15.43;89.66;99726.38;4953078;29;20038;-81
2021/08/07 02:06:22;;;;;;;6.32;3.22;;;;;;;15.37;89.59;99731.94;4966852;28;20028;-81
2021/08/07 02:08:50;;;;;;;5.15;3.38;;;;;;;15.32;89.85;99725.00;4972849;28;20043;-81
2021/08/07 02:11:23;;;;;;;6.22;3.05;;;;;;;15.31;89.85;99730.38;4970279;28;20123;-81
2021/08/07 02:13:56;;;;;;;5.63;3.08;;;;;;;15.29;89.84;99730.44;4954351;28;20058;-81
2021/08/07 02:16:26;;;;;;;5.47;2.78;;;;;;;15.29;89.91;99730.44;4968987;28;20107;-81
2021/08/07 02:18:54;;;;;;;9.45;3.92;;;;;;;15.28;89.71;99731.38;4972975;28;20035;-81
2021/08/07 02:21:26;;;;;;;6.63;3.03;;;;;;;15.24;89.55;99726.22;4941695;28;20039;-81
2021/08/07 02:23:52;;;;;;;9.10;3.58;;;;;;;15.22;89.71;99720.09;4939313;28;20035;-81
2021/08/07 02:26:23;;;;;;;5.65;3.53;;;;;;;15.15;89.66;99723.94;4964303;28;20038;-82
2021/08/07 02:29:15;;;;;;;6.75;3.50;;;;;;;15.04;89.74;99724.34;4968122;28;20039;-82
2021/08/07 02:31:58;;;;;;;8.38;3.20;;;;;;;14.98;90.05;99730.72;4967243;28;20079;-81
2021/08/07 02:34:26;;;;;;;6.18;3.30;;;;;;;14.96;90.20;99726.38;4968011;28;20078;-81
2021/08/07 02:36:52;;;;;;;5.47;2.83;;;;;;;14.92;90.26;99728.28;4951785;28;20122;-80
2021/08/07 02:39:25;;;;;;;4.88;3.45;;;;;;;14.87;90.57;99723.16;4970734;28;20462;-81
2021/08/07 02:41:56;;;;;;;5.07;2.88;;;;;;;14.86;90.63;99726.75;4971747;28;20038;-81
2021/08/07 02:44:22;;;;;;;5.68;2.88;;;;;;;14.80;90.08;99716.34;4969861;28;20403;-81
2021/08/07 02:46:48;;;;;;;6.57;2.42;;;;;;;14.75;90.54;99723.63;4969725;28;20065;-81
2021/08/07 02:49:16;;;;;;;4.80;2.55;;;;;;;14.75;90.42;99722.72;4970746;28;20031;-81
2021/08/07 02:51:41;;;;;;;10.25;4.05;;;;;;;14.74;90.51;99723.66;4968606;28;20034;-81
2021/08/07 02:54:09;;;;;;;5.60;1.95;;;;;;;14.71;90.36;99727.28;4971350;28;20034;-81
2021/08/07 02:56:35;;;;;;;5.82;2.45;;;;;;;14.67;90.37;99725.66;4936188;29;20462;-81
2021/08/07 02:59:00;;;;;;;5.25;2.85;;;;;;;14.59;90.46;99720.63;4970263;28;20031;-80
2021/08/07 03:01:27;;;;;;;4.45;2.47;;;;;;;14.55;90.26;99726.97;4967534;28;20031;-81
2021/08/07 03:03:55;;;;;;;4.68;2.20;;;;;;;14.52;90.23;99720.88;4970463;28;20114;-81
2021/08/07 03:06:23;;;;;;;3.90;2.63;;;;;;;14.47;90.41;99729.84;4966388;28;20134;-81
2021/08/07 03:08:50;;;;;;;5.35;3.55;;;;;;;14.37;90.41;99727.56;4970115;28;20081;-80
2021/08/07 03:11:16;;;;;;;5.47;3.00;;;;;;;14.32;90.78;99726.88;4971180;28;20086;-81
2021/08/07 03:13:44;;;;;;;4.47;2.78;;;;;;;14.30;90.94;99729.56;4970867;28;20404;-81
2021/08/07 03:16:10;;;;;;;8.73;3.40;;;;;;;14.29;90.81;99719.88;4967974;28;20035;-81
2021/08/07 03:18:41;;;;;;;5.60;3.28;;;;;;;14.31;90.51;99733.97;4970178;28;20058;-81
2021/08/07 03:21:07;;;;;;;5.88;3.17;;;;;;;14.31;90.92;99739.28;4970356;28;20039;-81
2021/08/07 03:23:47;;;;;;;5.53;2.33;;;;;;;14.31;91.22;99743.72;4968441;28;20035;-81
2021/08/07 03:26:12;;;;;;;4.45;2.40;;;;;;;14.33;90.75;99741.84;4971513;28;20031;-81
2021/08/07 03:28:39;;;;;;;4.38;2.22;;;;;;;14.31;90.72;99733.97;4965726;28;20035;-81
2021/08/07 03:31:06;;;;;;;3.95;1.58;;;;;;;14.27;90.77;99728.81;4968839;28;20031;-81
2021/08/07 03:33:35;;;;;;;4.85;2.00;;;;;;;14.25;90.40;99731.50;4970511;28;20054;-81
2021/08/07 03:36:02;;;;;;;7.15;2.65;;;;;;;14.28;90.61;99735.84;4968413;28;20065;-82
2021/08/07 03:38:29;;;;;;;4.32;2.05;;;;;;;14.25;90.71;99731.50;4968822;28;20437;-82
2021/08/07 03:40:55;;;;;;;3.50;2.25;;;;;;;14.27;90.59;99740.28;4966827;28;20031;-81
2021/08/07 03:43:21;;;;;;;6.30;2.35;;;;;;;14.29;90.67;99738.44;4969769;28;20556;-82
2021/08/07 03:45:46;;;;;;;4.93;2.92;;;;;;;14.31;90.79;99730.44;4968480;28;20457;-82
2021/08/07 03:48:12;;;;;;;5.07;2.35;;;;;;;14.29;90.28;99730.50;4969306;28;20031;-81
2021/08/07 03:50:43;;;;;;;5.20;2.30;;;;;;;14.32;89.97;99726.88;4971988;28;20039;-81
2021/08/07 03:53:11;;;;;;;2.88;2.00;;;;;;;14.29;89.99;99730.50;4956978;28;20510;-81
2021/08/07 03:55:37;;;;;;;5.07;2.33;;;;;;;14.31;90.08;99733.97;4953754;29;20039;-81
2021/08/07 03:58:04;;;;;;;4.72;2.95;;;;;;;14.32;89.85;99738.34;4953828;29;20513;-81
2021/08/07 04:00:42;;;;;;;5.03;3.17;;;;;;;14.26;89.93;99733.25;4977625;28;20035;-81
2021/08/07 04:03:13;;;;;;;5.13;2.33;;;;;;;14.29;89.87;99732.28;4975294;28;20039;-81
2021/08/07 04:05:38;;;;;;;5.43;2.70;;;;;;;14.31;90.08;99730.44;4957361;28;20131;-81
2021/08/07 04:08:08;;;;;;;4.55;2.55;;;;;;;14.34;90.03;99736.50;4972988;28;20035;-82
2021/08/07 04:10:36;;;;;;;6.85;2.72;;;;;;;14.37;89.76;99739.06;4951556;29;20034;-82
2021/08/07 04:13:02;;;;;;;4.13;2.60;;;;;;;14.38;89.62;99739.91;4970592;28;20062;-82
2021/08/07 04:15:27;;;;;;;6.65;2.83;;;;;;;14.39;89.77;99746.97;4970444;28;20030;-82
2021/08/07 04:17:53;;;;;;;3.05;1.90;;;;;;;14.41;89.58;99747.81;4950978;29;20039;-82
2021/08/07 04:20:19;;;;;;;6.50;1.83;;;;;;;14.42;89.81;99747.72;4955123;28;20054;-81
2021/08/07 04:22:45;;;;;;;3.65;1.77;;;;;;;14.43;89.71;99751.25;4952050;29;20036;-82
2021/08/07 04:25:10;;;;;;;2.88;1.83;;;;;;;14.43;89.31;99752.09;4971157;28;20034;-82
2021/08/07 04:27:39;;;;;;;2.70;1.60;;;;;;;14.41;89.33;99742.50;4968514;28;20066;-81
2021/08/07 04:30:07;;;;;;;4.57;2.10;;;;;;;14.41;89.95;99746.00;4954653;28;20034;-82
2021/08/07 04:32:34;;;;;;;3.22;1.90;;;;;;;14.48;89.89;99747.50;4969447;28;20570;-81
2021/08/07 04:35:06;;;;;;;6.00;2.60;;;;;;;14.55;89.68;99744.69;4953646;28;20100;-81
2021/08/07 04:37:43;;;;;;;3.47;1.90;;;;;;;14.63;90.18;99753.25;4970261;28;20078;-81
2021/08/07 04:40:09;;;;;;;4.00;2.15;;;;;;;14.72;89.73;99752.91;4956661;28;20031;-81
2021/08/07 04:42:35;;;;;;;3.38;1.80;;;;;;;14.78;89.47;99741.22;4966367;28;20031;-80
2021/08/07 04:45:00;;;;;;;4.25;2.30;;;;;;;14.87;89.54;99752.38;4969990;28;20031;-81
2021/08/07 04:47:26;;;;;;;3.20;2.17;;;;;;;14.97;89.44;99757.34;4957085;28;20098;-81
2021/08/07 04:49:51;;;;;;;5.28;2.55;;;;;;;15.04;89.17;99750.91;4971641;28;20039;-81
2021/08/07 04:52:17;;;;;;;6.35;1.80;;;;;;;15.08;89.18;99758.69;4956518;28;20041;-80
2021/08/07 04:54:43;;;;;;;3.92;2.15;;;;;;;15.15;88.92;99764.66;4962395;28;20039;-79
2021/08/07 04:57:09;;;;;;;3.08;1.90;;;;;;;15.24;88.81;99763.44;4969707;28;20379;-81
2021/08/07 04:59:34;;;;;;;4.65;2.22;;;;;;;15.34;88.15;99763.03;4957723;28;20089;-81
2021/08/07 05:01:59;;;;;;;4.63;1.92;;;;;;;15.42;88.33;99760.06;4973726;28;20038;-82
2021/08/07 05:04:26;;;;;;;5.03;1.92;;;;;;;15.50;87.85;99760.66;4967822;28;20094;-82
2021/08/07 05:06:51;;;;;;;4.32;1.70;;;;;;;15.57;88.00;99766.59;4970729;28;20035;-82
2021/08/07 05:09:17;;;;;;;4.03;2.10;;;;;;;15.66;87.61;99762.72;4949795;29;20023;-82
2021/08/07 05:12:00;;;;;;;4.80;2.03;;;;;;;15.72;87.23;99766.03;4955300;28;20027;-82
2021/08/07 05:14:26;;;;;;;4.32;1.85;;;;;;;15.83;87.17;99768.28;4968457;28;20086;-82
2021/08/07 05:16:52;;;;;;;4.78;1.70;;;;;;;15.95;87.14;99766.91;4971725;28;20037;-82
2021/08/07 05:19:17;;;;;;;4.10;1.80;;;;;;;16.04;86.66;99765.69;4968321;28;20094;-82
2021/08/07 05:21:43;;;;;;;3.40;2.15;;;;;;;16.09;86.71;99767.22;4972309;28;20121;-82
2021/08/07 05:24:09;;;;;;;3.42;1.88;;;;;;;16.12;86.37;99768.91;4952869;29;20035;-82
2021/08/07 05:26:35;;;;;;;5.50;2.00;;;;;;;16.14;86.04;99762.56;4973377;28;20065;-82
2021/08/07 05:29:00;;;;;;;3.70;1.90;;;;;;;16.21;85.97;99766.69;4957060;28;20058;-82
2021/08/07 05:31:25;;;;;;;2.90;1.50;;;;;;;16.34;85.83;99771.53;4968945;28;20115;-82
2021/08/07 05:33:51;;;;;;;4.00;2.13;;;;;;;16.40;85.37;99773.91;4972451;28;20085;-82
2021/08/07 05:36:17;;;;;;;4.03;1.65;;;;;;;16.39;85.61;99767.72;4969083;28;20486;-82
2021/08/07 05:38:43;;;;;;;4.22;2.65;;;;;;;16.51;85.57;99776.16;4954501;28;20031;-82
2021/08/07 05:41:09;;;;;;;4.28;2.17;;;;;;;16.64;85.08;99775.56;4970638;28;20037;-82
2021/08/07 05:43:36;;;;;;;6.90;2.00;;;;;;;16.74;84.36;99767.13;4962982;28;20042;-82
2021/08/07 05:46:01;;;;;;;4.57;1.95;;;;;;;16.78;84.52;99768.78;4979319;28;20039;-82
2021/08/07 05:48:27;;;;;;;6.35;2.15;;;;;;;16.95;83.81;99765.38;4974724;28;20126;-82
2021/08/07 05:50:52;;;;;;;3.60;1.95;;;;;;;17.04;84.15;99773.81;4973530;28;20046;-81
2021/08/07 05:53:18;;;;;;;3.95;1.50;;;;;;;17.11;83.46;99774.44;4964182;28;20027;-82
2021/08/07 05:55:44;;;;;;;4.85;1.70;;;;;;;17.19;82.68;99768.75;4989849;28;20390;-82
2021/08/07 05:58:09;;;;;;;5.05;1.83;;;;;;;17.28;82.27;99763.84;4979996;28;20051;-82
2021/08/07 06:00:40;;;;;;;3.53;1.58;;;;;;;17.36;81.86;99758.16;4970658;28;20051;-81
2021/08/07 06:03:06;;;;;;;4.75;1.70;;;;;;;17.45;81.52;99754.22;4979603;28;20039;-82
2021/08/07 06:05:37;;;;;;;7.00;2.05;;;;;;;17.50;81.93;99745.06;4976139;28;20121;-82
2021/08/07 06:08:05;;;;;;;4.55;1.90;;;;;;;17.60;81.11;99752.59;4966652;28;20035;-82
2021/08/07 06:10:31;;;;;;;4.88;1.90;;;;;;;17.65;81.41;99753.25;4975901;28;20031;-82
2021/08/07 06:12:57;;;;;;;4.00;1.70;;;;;;;17.71;81.04;99755.63;4980742;28;20031;-82
2021/08/07 06:15:24;;;;;;;5.95;2.45;;;;;;;17.81;80.59;99753.41;4964106;28;20074;-82
2021/08/07 06:17:50;;;;;;;3.65;1.60;;;;;;;17.88;80.39;99758.38;4974446;28;20039;-81
2021/08/07 06:20:15;;;;;;;5.60;2.05;;;;;;;18.01;80.31;99764.00;4953467;28;20030;-82
2021/08/07 06:22:45;;;;;;;3.53;1.80;;;;;;;18.13;80.13;99767.84;4943648;28;20042;-82
2021/08/07 06:25:12;;;;;;;4.97;2.08;;;;;;;18.18;79.76;99771.16;4986664;28;20034;-81
2021/08/07 06:27:38;;;;;;;4.38;1.83;;;;;;;18.30;80.02;99781.25;4974345;28;20035;-82
2021/08/07 06:30:04;;;;;;;5.55;2.05;;;;;;;18.42;79.49;99782.44;4972050;28;20063;-82
2021/08/07 06:32:30;;;;;;;3.47;2.03;;;;;;;18.46;78.93;99781.34;4958144;28;20038;-82
2021/08/07 06:34:55;;;;;;;3.65;1.80;;;;;;;18.59;78.93;99779.75;4971859;28;20090;-82
2021/08/07 06:37:22;;;;;;;3.42;1.52;;;;;;;18.66;77.26;99774.13;4957455;28;20053;-82
2021/08/07 06:39:47;;;;;;;3.92;1.77;;;;;;;18.68;76.94;99778.44;4961493;28;20058;-82
2021/08/07 06:42:12;;;;;;;4.72;2.00;;;;;;;18.76;75.92;99778.94;4982647;28;20116;-82
2021/08/07 06:44:53;;;;;;;4.82;1.23;;;;;;;18.88;75.11;99784.59;4972222;28;20035;-82
2021/08/07 06:47:20;;;;;;;2.55;1.23;;;;;;;18.93;75.38;99785.22;4973149;28;20035;-82
2021/08/07 06:49:45;;;;;;;3.90;1.65;;;;;;;19.00;74.32;99781.28;4973088;28;20058;-83
2021/08/07 06:52:11;;;;;;;7.07;1.23;;;;;;;19.06;74.33;99783.63;4985439;28;20041;-82
2021/08/07 06:54:36;;;;;;;2.88;1.20;;;;;;;19.19;73.47;99787.38;4962192;28;20062;-82
2021/08/07 06:57:02;;;;;;;3.03;1.02;;;;;;;19.24;73.34;99779.97;4972048;28;20031;-82
2021/08/07 06:59:28;;;;;;;2.33;1.00;;;;;;;19.33;72.02;99788.44;4960347;28;20045;-83
2021/08/07 07:01:54;;;;;;;4.82;1.23;;;;;;;19.27;71.18;99779.78;4974737;28;20446;-82
2021/08/07 07:04:19;;;;;;;4.50;1.30;;;;;;;19.33;72.04;99780.41;4964551;28;20093;-82
2021/08/07 07:06:45;;;;;;;4.68;0.98;;;;;;;19.42;71.63;99787.94;4982464;28;20035;-82
2021/08/07 07:09:10;;;;;;;2.88;1.40;;;;;;;19.57;71.15;99780.88;4971469;28;20035;-82
2021/08/07 07:11:37;;;;;;;2.80;0.90;;;;;;;19.65;69.22;99779.50;4957200;28;20077;-83
2021/08/07 07:14:04;;;;;;;3.55;0.90;;;;;;;19.67;70.07;99782.97;4971138;28;20035;-83
2021/08/07 07:16:30;;;;;;;2.95;1.33;;;;;;;19.72;69.18;99779.19;4959136;28;20041;-83
2021/08/07 07:18:56;;;;;;;4.07;1.05;;;;;;;19.64;68.86;99791.16;4963628;28;20461;-83
2021/08/07 07:21:22;;;;;;;2.65;1.20;;;;;;;19.73;68.97;99788.94;4981103;28;20308;-83
2021/08/07 07:23:50;;;;;;;3.28;1.08;;;;;;;19.79;69.49;99783.25;4952033;28;20034;-83
2021/08/07 07:26:15;;;;;;;2.00;0.90;;;;;;;19.87;69.66;99776.50;4948741;28;20118;-83
2021/08/07 07:28:41;;;;;;;3.65;0.90;;;;;;;19.94;69.10;99774.38;4962230;28;20084;-84
2021/08/07 07:31:07;;;;;;;3.65;0.90;;;;;;;19.97;68.42;99774.19;4962742;28;20062;-83
2021/08/07 07:33:32;;;;;;;3.13;1.10;;;;;;;20.04;68.88;99780.03;4971481;28;20155;-83
2021/08/07 07:35:58;;;;;;;2.63;1.00;;;;;;;20.14;67.96;99779.41;4967777;28;20506;-83
2021/08/07 07:38:25;;;;;;;2.08;0.90;;;;;;;20.30;67.23;99779.44;4971257;28;20090;-83
2021/08/07 07:40:51;;;;;;;3.45;0.93;;;;;;;20.43;67.72;99782.22;4954553;28;20098;-83
2021/08/07 07:43:19;;;;;;;4.45;0.80;;;;;;;20.52;66.46;99791.56;4968390;28;20066;-84
2021/08/07 07:45:45;;;;;;;4.90;1.10;;;;;;;20.49;67.61;99797.09;4955692;28;20528;-83
2021/08/07 07:48:10;;;;;;;2.25;0.80;;;;;;;20.61;66.92;99795.53;4969474;28;20039;-83
2021/08/07 07:50:36;;;;;;;3.00;0.95;;;;;;;20.72;66.86;99795.75;4955629;28;20077;-83
2021/08/07 07:53:01;;;;;;;4.40;0.90;;;;;;;20.65;64.64;99786.38;4969576;28;20408;-84
2021/08/07 07:55:29;;;;;;;2.15;0.70;;;;;;;20.68;65.54;99781.69;4956296;28;20049;-83
2021/08/07 07:58:02;;;;;;;3.47;1.00;;;;;;;20.62;64.96;99775.81;4968422;28;20068;-84
2021/08/07 08:00:30;;;;;;;5.22;1.25;;;;;;;20.74;64.84;99765.22;4970870;28;20512;-83
2021/08/07 08:02:58;;;;;;;2.85;0.88;;;;;;;20.93;64.97;99767.66;4965931;28;20042;-84
2021/08/07 08:05:34;;;;;;;3.25;0.75;;;;;;;21.12;64.07;99763.84;4970554;28;20041;-83
2021/08/07 08:08:03;;;;;;;3.50;0.73;;;;;;;21.20;63.35;99762.41;4971551;28;20027;-83
2021/08/07 08:10:28;;;;;;;2.22;0.95;;;;;;;21.24;64.50;99760.38;4974310;28;20041;-83
2021/08/07 08:12:54;;;;;;;2.40;0.80;;;;;;;21.36;63.30;99773.03;4971721;28;20041;-81
2021/08/07 08:15:21;;;;;;;4.22;0.98;;;;;;;21.51;62.06;99775.72;4976184;28;20039;-81
2021/08/07 08:17:48;;;;;;;1.80;0.80;;;;;;;21.57;60.74;99765.47;4956596;28;20069;-81
2021/08/07 08:20:14;;;;;;;2.75;1.00;;;;;;;21.50;59.54;99758.75;4976209;28;20102;-81
2021/08/07 08:22:41;;;;;;;1.67;0.75;;;;;;;21.60;60.75;99761.72;4974151;28;20031;-81
2021/08/07 08:25:10;;;;;;;2.10;0.80;;;;;;;21.73;61.21;99753.75;4959481;28;20038;-81
2021/08/07 08:27:39;;;;;;;2.42;0.93;;;;;;;21.83;61.06;99765.63;4973774;28;20063;-81
2021/08/07 08:30:07;;;;;;;2.75;0.80;;;;;;;21.85;60.27;99763.66;4975136;28;20066;-81
2021/08/07 08:32:33;;;;;;;2.72;0.98;;;;;;;21.84;60.01;99754.75;4971488;28;20027;-82
2021/08/07 08:34:59;;;;;;;3.95;0.82;;;;;;;21.98;60.42;99755.69;4975097;28;20038;-81
2021/08/07 08:37:25;;;;;;;4.50;1.48;;;;;;;22.14;60.45;99753.72;4974874;28;20042;-81
2021/08/07 08:39:51;;;;;;;1.95;0.60;;;;;;;22.23;58.16;99758.50;4959787;28;20039;-82
2021/08/07 08:42:17;;;;;;;1.48;0.70;;;;;;;22.12;58.26;99761.03;4974187;28;20030;-81
2021/08/07 08:44:43;;;;;;;3.60;0.88;;;;;;;22.13;58.18;99765.41;4976429;28;20127;-81
2021/08/07 08:47:12;;;;;;;1.55;0.63;;;;;;;22.26;57.18;99762.81;4974750;28;20062;-82
2021/08/07 08:49:37;;;;;;;1.88;0.60;;;;;;;22.37;57.40;99764.78;4976819;28;20039;-82
2021/08/07 08:52:03;;;;;;;4.47;0.82;;;;;;;22.51;57.40;99775.47;4974545;28;20043;-82
2021/08/07 08:54:29;;;;;;;6.80;1.02;;;;;;;22.58;55.35;99774.06;4956858;29;20031;-82
2021/08/07 08:56:55;;;;;;;1.73;0.70;;;;;;;22.46;54.41;99780.31;4977197;28;20042;-81
2021/08/07 08:59:22;;;;;;;1.88;0.60;;;;;;;22.53;55.36;99784.28;4961464;28;20081;-82
2021/08/07 09:01:49;;;;;;;2.10;0.90;;;;;;;22.57;56.68;99772.38;4961184;28;20035;-82
2021/08/07 09:04:16;;;;;;;1.40;0.47;;;;;;;22.71;54.90;99769.56;4977046;28;20385;-82
2021/08/07 09:06:43;;;;;;;11.07;2.90;;;;;;;22.69;55.96;99766.16;4974243;28;20163;-82
2021/08/07 09:09:10;;;;;;;5.18;1.58;;;;;;;22.74;55.56;99772.09;4977050;28;20027;-82
2021/08/07 09:11:47;;;;;;;7.32;1.60;;;;;;;22.72;54.73;99773.16;4974509;28;20031;-82
2021/08/07 09:14:13;;;;;;;4.97;1.20;;;;;;;22.79;54.73;99770.88;4959428;28;20206;-82
2021/08/07 09:16:58;;;;;;;5.00;1.05;;;;;;;22.87;53.75;99764.03;4963233;28;20035;-82
2021/08/07 09:19:40;;;;;;;3.53;1.42;;;;;;;22.88;53.11;99765.75;4980977;28;20039;-82
2021/08/07 09:22:33;;;;;;;2.45;0.60;;;;;;;22.89;54.17;99763.91;4977483;28;20035;-82
2021/08/07 09:25:12;;;;;;;;;;;;;;;22.82;54.18;99776.06;4974042;28;20039;-82
2021/08/07 09:27:42;;;;;;;2.83;1.20;;;;;;;22.93;54.15;99760.06;4979360;28;19921;-82
2021/08/07 09:30:18;;;;;;;1.85;0.88;;;;;;;22.99;53.55;99761.47;4979934;28;20027;-82
2021/08/07 09:32:53;;;;;;;4.35;0.80;;;;;;;23.17;52.86;99757.50;4978155;28;20042;-82
2021/08/07 09:35:24;;;;;;;1.58;0.75;;;;;;;23.12;51.93;99756.94;4963602;28;20093;-82
2021/08/07 09:38:12;;;;;;;1.65;0.68;;;;;;;23.25;51.78;99760.50;4982698;28;20054;-82
2021/08/07 09:40:51;;;;;;;3.17;0.88;;;;;;;23.32;51.45;99752.84;4980931;28;20058;-82
2021/08/07 09:43:23;;;;;;;3.03;1.10;;;;;;;23.44;51.75;99740.34;4977102;28;20063;-82
2021/08/07 09:46:03;;;;;;;2.42;0.73;;;;;;;23.37;51.42;99745.28;4977481;28;20042;-82
2021/08/07 09:48:33;;;;;;;2.63;1.00;;;;;;;23.50;51.69;99746.16;4963330;28;20062;-82
2021/08/07 09:50:59;;;;;;;1.85;0.93;;;;;;;23.66;50.18;99739.63;4979813;28;20038;-82
2021/08/07 09:53:28;;;;;;;2.28;0.90;;;;;;;23.60;51.02;99738.25;4962604;28;20043;-83
2021/08/07 09:55:59;;;;;;;2.65;0.90;;;;;;;23.80;52.08;99737.69;4964085;28;20062;-83
2021/08/07 09:58:26;;;;;;;3.40;1.08;;;;;;;24.00;50.40;99720.03;4976238;28;20075;-82
2021/08/07 10:00:52;;;;;;;3.22;1.13;;;;;;;23.90;51.44;99731.63;4948223;28;20038;-82
2021/08/07 10:03:27;;;;;;;5.13;0.90;;;;;;;24.30;50.52;99729.47;4978290;28;20039;-83
2021/08/07 10:06:18;;;;;;;3.33;1.25;;;;;;;24.66;47.87;99725.81;4961999;28;20102;-83
2021/08/07 10:08:47;;;;;;;2.45;0.82;;;;;;;24.83;47.33;99721.78;4962711;28;20039;-83
2021/08/07 10:11:13;;;;;;;3.05;1.00;;;;;;;24.75;47.53;99729.63;4978982;28;20026;-83
2021/08/07 10:13:44;;;;;;;3.28;0.80;;;;;;;24.95;46.84;99728.09;4979988;28;20054;-83
2021/08/07 10:16:17;;;;;;;2.85;0.80;;;;;;;24.85;48.34;99736.03;4961092;28;20039;-83
2021/08/07 10:18:44;;;;;;;3.00;0.90;;;;;;;24.97;47.12;99722.53;4964705;28;20077;-82
2021/08/07 10:21:10;;;;;;;2.65;0.70;;;;;;;25.24;47.54;99720.41;4978047;28;20074;-83
2021/08/07 10:23:35;;;;;;;2.28;0.85;;;;;;;25.35;46.58;99720.38;4963632;28;20043;-83
2021/08/07 10:26:02;;;;;;;2.33;0.75;;;;;;;25.57;45.89;99721.34;4977939;28;20047;-83
2021/08/07 10:28:32;;;;;;;3.55;0.73;;;;;;;25.59;45.50;99720.22;4962562;28;20031;-83
2021/08/07 10:31:03;;;;;;;1.98;0.88;;;;;;;25.78;44.09;99714.19;4979490;28;20027;-83
2021/08/07 10:33:35;;;;;;;1.27;0.60;;;;;;;25.71;45.11;99721.09;4978130;28;20034;-83
2021/08/07 10:36:00;;;;;;;4.03;1.10;;;;;;;25.90;44.19;99719.59;4979898;28;20098;-83
2021/08/07 10:38:26;;;;;;;3.20;0.80;;;;;;;25.86;43.46;99721.72;4961367;28;20046;-83
2021/08/07 10:40:54;;;;;;;2.35;0.98;;;;;;;25.98;43.18;99717.97;4979985;28;20038;-83
2021/08/07 10:43:22;;;;;;;2.92;0.93;;;;;;;26.06;42.54;99717.31;4962138;29;20486;-83
2021/08/07 10:45:48;;;;;;;3.35;1.05;;;;;;;26.08;41.84;99712.66;4976002;28;20042;-83
2021/08/07 10:48:37;;;;;;;2.47;0.77;;;;;;;25.88;41.35;99708.91;4980047;28;20030;-83
2021/08/07 10:51:22;;;;;;;2.25;0.70;;;;;;;26.06;43.02;99709.22;4978923;28;20050;-83
2021/08/07 10:53:52;;;;;;;1.80;0.60;;;;;;;26.25;42.27;99711.22;4979037;28;20043;-84
2021/08/07 10:56:26;;;;;;;2.08;0.63;;;;;;;26.16;42.66;99703.91;4978043;28;20417;-84
2021/08/07 10:58:52;;;;;;;1.45;0.70;;;;;;;26.03;41.61;99706.78;4980626;28;20039;-83
2021/08/07 11:01:27;;;;;;;2.83;0.70;;;;;;;26.09;42.35;99711.66;4958743;28;20036;-84
2021/08/07 11:04:01;;;;;;;2.67;0.88;;;;;;;26.10;42.68;99709.84;4978354;28;20099;-81
2021/08/07 11:06:39;;;;;;;2.67;0.60;;;;;;;25.91;42.33;99703.28;4985183;28;20035;-83
2021/08/07 11:09:26;;;;;;;2.45;0.90;;;;;;;25.70;43.17;99699.59;4981778;28;20473;-84
2021/08/07 11:12:06;;;;;;;2.53;1.10;;;;;;;25.82;42.58;99695.03;4961121;29;20035;-83
2021/08/07 11:14:35;;;;;;;2.63;0.82;;;;;;;25.77;43.84;99690.84;4980499;28;20046;-83
2021/08/07 11:17:03;;;;;;;2.47;0.80;;;;;;;25.82;43.16;99697.72;4979708;28;20094;-84
2021/08/07 11:19:48;;;;;;;2.88;0.95;;;;;;;26.03;42.84;99690.56;4979373;28;20038;-84
2021/08/07 11:22:37;;;;;;;1.95;0.70;;;;;;;26.11;43.98;99688.06;4981893;28;20038;-83
2021/08/07 11:25:10;;;;;;;2.08;0.70;;;;;;;26.15;42.03;99689.53;4949623;28;20116;-79
2021/08/07 11:28:06;;;;;;;1.85;0.60;;;;;;;26.18;41.44;99688.41;4976228;28;20038;-83
2021/08/07 11:30:41;;;;;;;1.25;0.50;;;;;;;26.13;41.92;99680.69;4958736;28;20051;-82
2021/08/07 11:33:09;;;;;;;2.90;0.55;;;;;;;26.28;43.01;99680.34;4991150;28;20478;-83
2021/08/07 11:35:38;;;;;;;1.83;0.57;;;;;;;26.40;42.20;99682.88;4968138;28;20085;-83
2021/08/07 11:38:06;;;;;;;4.10;0.80;;;;;;;26.85;41.70;99682.66;4979373;28;20043;-83
2021/08/07 11:40:56;;;;;;;1.80;0.70;;;;;;;27.15;40.01;99669.22;4977177;28;20047;-83
2021/08/07 11:43:24;;;;;;;1.40;0.65;;;;;;;27.71;39.01;99664.13;4977122;28;20037;-81